createdAt,value
2023-02-23T00:02:25.651Z,101294.59
2023-02-23T00:04:53.750Z,101298.13
2023-02-23T00:07:23.480Z,101300.66
2023-02-23T00:09:53.107Z,101298.75
2023-02-23T00:12:21.301Z,101308.47
2023-02-23T00:14:49.360Z,101305.81
2023-02-23T00:17:20.172Z,101301.41
2023-02-23T00:19:49.702Z,101305.81
2023-02-23T00:22:17.795Z,101293.41
2023-02-23T00:24:48.212Z,101301.41
2023-02-23T00:27:19.037Z,101305.03
2023-02-23T00:29:49.753Z,101295.34
2023-02-23T00:32:21.803Z,101294.47
2023-02-23T00:34:50.604Z,101296.19
2023-02-23T00:37:22.117Z,101292.84
2023-02-23T00:39:52.307Z,101299.09
2023-02-23T00:42:20.346Z,101293.75
2023-02-23T00:44:49.569Z,101303.53
2023-02-23T00:47:17.624Z,101297.47
2023-02-23T00:49:46.223Z,101301.16
2023-02-23T00:52:15.634Z,101294.97
2023-02-23T00:54:43.656Z,101294.97
2023-02-23T00:57:13.596Z,101296.25
2023-02-23T00:59:42.514Z,101300.53
2023-02-23T01:02:10.628Z,101292.63
2023-02-23T01:04:38.680Z,101295.28
2023-02-23T01:07:06.902Z,101285.69
2023-02-23T01:09:35.062Z,101294.53
2023-02-23T01:12:07.679Z,101293.88
2023-02-23T01:14:39.068Z,101291.22
2023-02-23T01:17:07.681Z,101292.06
2023-02-23T01:19:35.944Z,101302.84
2023-02-23T01:22:04.126Z,101293.03
2023-02-23T01:24:32.230Z,101309.88
2023-02-23T01:27:00.173Z,101298.47
2023-02-23T01:29:28.665Z,101295.91
2023-02-23T01:31:58.594Z,101297.69
2023-02-23T01:34:27.048Z,101304.75
2023-02-23T01:36:55.430Z,101293.44
2023-02-23T01:39:23.527Z,101297.91
2023-02-23T01:41:54.374Z,101306.66
2023-02-23T01:44:59.862Z,101298.88
2023-02-23T01:47:29.967Z,101302.69
2023-02-23T01:50:02.313Z,101308.03
2023-02-23T01:52:30.446Z,101312.28
2023-02-23T01:54:58.770Z,101321.13
2023-02-23T01:57:27.436Z,101330.00
2023-02-23T01:59:56.247Z,101326.47
2023-02-23T02:02:33.448Z,101338.75
2023-02-23T02:05:05.612Z,101331.78
2023-02-23T02:07:35.594Z,101327.41
2023-02-23T02:10:39.532Z,101330.09
2023-02-23T02:13:09.784Z,101331.16
2023-02-23T02:15:53.818Z,101337.34
2023-02-23T02:18:30.716Z,101330.19
2023-02-23T02:21:25.387Z,101330.09
2023-02-23T02:24:17.442Z,101337.13
2023-02-23T02:26:57.350Z,101338.84
2023-02-23T02:29:51.963Z,101346.63
2023-02-23T02:32:51.699Z,101343.69
2023-02-23T02:35:52.269Z,101347.31
2023-02-23T02:38:38.966Z,101350.81
2023-02-23T02:41:14.289Z,101361.38
2023-02-23T02:43:52.215Z,101365.84
2023-02-23T02:46:25.038Z,101372.88
2023-02-23T02:49:03.843Z,101368.63
2023-02-23T02:51:36.832Z,101356.25
2023-02-23T02:54:13.523Z,101366.06
2023-02-23T02:56:44.723Z,101360.63
2023-02-23T02:59:33.782Z,101367.56
2023-02-23T03:02:19.605Z,101376.44
2023-02-23T03:05:06.800Z,101371.13
2023-02-23T03:07:59.231Z,101371.00
2023-02-23T03:10:55.684Z,101372.59
2023-02-23T03:13:52.000Z,101369.84
2023-02-23T03:16:49.434Z,101370.72
2023-02-23T03:19:41.694Z,101369.94
2023-02-23T03:22:37.346Z,101380.53
2023-02-23T03:25:29.359Z,101376.72
2023-02-23T03:28:26.300Z,101374.22
2023-02-23T03:31:21.417Z,101364.53
2023-02-23T03:34:15.000Z,101370.72
2023-02-23T03:37:08.943Z,101371.75
2023-02-23T03:39:59.791Z,101378.16
2023-02-23T03:42:51.905Z,101376.63
2023-02-23T03:45:41.980Z,101378.56
2023-02-23T03:48:30.975Z,101375.97
2023-02-23T03:51:21.204Z,101384.06
2023-02-23T03:54:12.296Z,101393.66
2023-02-23T03:57:02.954Z,101393.78
2023-02-23T03:59:53.017Z,101399.22
2023-02-23T04:02:42.466Z,101394.72
2023-02-23T04:05:33.964Z,101399.94
2023-02-23T04:08:23.288Z,101402.63
2023-02-23T04:11:17.980Z,101399.00
2023-02-23T04:13:48.619Z,101400.50
2023-02-23T04:16:16.116Z,101404.69
2023-02-23T04:18:46.194Z,101404.41
2023-02-23T04:21:14.415Z,101406.97
2023-02-23T04:23:45.215Z,101414.88
2023-02-23T04:26:13.665Z,101409.75
2023-02-23T04:28:41.779Z,101423.19
2023-02-23T04:31:09.973Z,101423.19
2023-02-23T04:33:39.445Z,101422.97
2023-02-23T04:36:10.147Z,101413.16
2023-02-23T04:38:39.011Z,101423.81
2023-02-23T04:41:07.253Z,101417.84
2023-02-23T04:43:35.379Z,101418.03
2023-02-23T04:46:03.437Z,101423.56
2023-02-23T04:48:31.548Z,101434.44
2023-02-23T04:51:01.018Z,101430.97
2023-02-23T04:53:30.509Z,101429.50
2023-02-23T04:55:58.541Z,101437.50
2023-02-23T04:58:27.140Z,101430.81
2023-02-23T05:00:55.224Z,101436.25
2023-02-23T05:03:23.776Z,101435.47
2023-02-23T05:05:51.741Z,101443.47
2023-02-23T05:08:19.802Z,101451.47
2023-02-23T05:10:49.369Z,101448.06
2023-02-23T05:13:17.355Z,101445.38
2023-02-23T05:15:45.491Z,101454.22
2023-02-23T05:18:13.538Z,101446.41
2023-02-23T05:20:46.771Z,101454.22
2023-02-23T05:23:15.118Z,101449.00
2023-02-23T05:25:43.223Z,101451.66
2023-02-23T05:28:12.667Z,101463.09
2023-02-23T05:30:40.805Z,101469.25
2023-02-23T05:33:08.846Z,101465.75
2023-02-23T05:35:37.033Z,101471.84
2023-02-23T05:38:05.851Z,101478.91
2023-02-23T05:40:34.379Z,101476.13
2023-02-23T05:43:03.434Z,101472.72
2023-02-23T05:45:33.336Z,101479.75
2023-02-23T05:48:01.834Z,101479.75
2023-02-23T05:50:30.049Z,101481.66
2023-02-23T05:52:58.149Z,101477.38
2023-02-23T05:55:29.676Z,101471.19
2023-02-23T05:57:57.683Z,101479.00
2023-02-23T06:00:26.242Z,101486.78
2023-02-23T06:02:56.655Z,101479.75
2023-02-23T06:05:24.816Z,101486.69
2023-02-23T06:07:53.437Z,101487.56
2023-02-23T06:10:21.784Z,101489.16
2023-02-23T06:12:49.785Z,101491.72
2023-02-23T06:15:18.762Z,101492.50
2023-02-23T06:17:46.799Z,101487.94
2023-02-23T06:20:16.344Z,101489.75
2023-02-23T06:22:44.823Z,101494.97
2023-02-23T06:25:14.042Z,101498.50
2023-02-23T06:27:42.724Z,101495.91
2023-02-23T06:30:12.207Z,101494.97
2023-02-23T06:32:40.531Z,101494.78
2023-02-23T06:35:10.058Z,101500.88
2023-02-23T06:37:39.593Z,101507.16
2023-02-23T06:40:09.092Z,101500.97
2023-02-23T06:42:40.890Z,101508.00
2023-02-23T06:45:09.724Z,101510.59
2023-02-23T06:47:37.757Z,101515.16
2023-02-23T06:50:06.989Z,101508.13
2023-02-23T06:52:35.201Z,101511.91
2023-02-23T06:55:04.894Z,101514.59
2023-02-23T06:57:32.951Z,101514.59
2023-02-23T07:00:01.841Z,101520.88
2023-02-23T07:02:30.138Z,101517.34
2023-02-23T07:04:58.868Z,101513.84
2023-02-23T07:07:27.434Z,101520.97
2023-02-23T07:09:58.115Z,101511.16
2023-02-23T07:12:27.980Z,101525.25
2023-02-23T07:14:56.129Z,101531.53
2023-02-23T07:17:24.409Z,101523.53
2023-02-23T07:19:52.702Z,101528.88
2023-02-23T07:22:22.315Z,101534.94
2023-02-23T07:24:50.513Z,101535.72
2023-02-23T07:27:18.484Z,101545.53
2023-02-23T07:29:48.560Z,101549.91
2023-02-23T07:32:16.846Z,101559.44
2023-02-23T07:34:46.026Z,101556.56
2023-02-23T07:37:14.719Z,101552.97
2023-02-23T07:39:42.735Z,101560.69
2023-02-23T07:42:11.561Z,101556.97
2023-02-23T07:44:40.292Z,101551.47
2023-02-23T07:47:09.749Z,101558.41
2023-02-23T07:49:38.086Z,101560.88
2023-02-23T07:52:06.316Z,101564.28
2023-02-23T07:54:34.955Z,101568.69
2023-02-23T07:57:03.094Z,101573.72
2023-02-23T07:59:32.209Z,101577.16
2023-02-23T08:02:01.215Z,101580.59
2023-02-23T08:04:31.516Z,101580.31
2023-02-23T08:06:59.572Z,101589.66
2023-02-23T08:09:27.547Z,101602.72
2023-02-23T08:11:55.652Z,101606.97
2023-02-23T08:14:25.085Z,101596.69
2023-02-23T08:16:53.181Z,101593.63
2023-02-23T08:19:22.978Z,101614.41
2023-02-23T08:21:52.520Z,101597.13
2023-02-23T08:24:20.641Z,101604.94
2023-02-23T08:26:50.459Z,101602.28
2023-02-23T08:29:19.027Z,101598.81
2023-02-23T08:31:47.315Z,101618.38
2023-02-23T08:34:15.893Z,101609.44
2023-02-23T08:36:45.908Z,101621.03
2023-02-23T08:39:16.859Z,101638.03
2023-02-23T08:41:44.905Z,101625.44
2023-02-23T08:44:12.856Z,101631.25
2023-02-23T08:46:40.967Z,101631.84
2023-02-23T08:49:10.877Z,101628.88
2023-02-23T08:51:38.835Z,101633.25
2023-02-23T08:54:12.831Z,101633.25
2023-02-23T08:56:42.662Z,101635.91
2023-02-23T08:59:11.459Z,101632.97
2023-02-23T09:01:39.683Z,101646.41
2023-02-23T09:04:08.080Z,101649.84
2023-02-23T09:06:36.509Z,101640.13
2023-02-23T09:09:04.990Z,101657.56
2023-02-23T09:11:33.118Z,101652.03
2023-02-23T09:14:02.734Z,101652.69
2023-02-23T09:16:33.953Z,101666.69
2023-02-23T09:19:02.326Z,101659.34
2023-02-23T09:21:30.866Z,101654.00
2023-02-23T09:23:59.142Z,101664.00
2023-02-23T09:26:28.847Z,101665.72
2023-02-23T09:28:59.248Z,101661.03
2023-02-23T09:31:28.998Z,101666.38
2023-02-23T09:33:57.287Z,101669.31
2023-02-23T09:36:26.658Z,101678.25
2023-02-23T09:38:57.768Z,101672.38
2023-02-23T09:41:47.244Z,101675.97
2023-02-23T09:44:26.819Z,101662.09
2023-02-23T09:47:06.622Z,101661.78
2023-02-23T09:49:40.151Z,101666.84
2023-02-23T09:52:16.953Z,101663.06
2023-02-23T09:54:45.864Z,101666.53
2023-02-23T09:57:17.871Z,101673.47
2023-02-23T09:59:46.939Z,101661.50
2023-02-23T10:02:26.747Z,101657.09
2023-02-23T10:05:00.755Z,101654.56
2023-02-23T10:07:42.518Z,101665.13
2023-02-23T10:10:24.278Z,101669.63
2023-02-23T10:12:59.248Z,101670.38
2023-02-23T10:15:37.372Z,101673.50
2023-02-23T10:18:20.714Z,101676.50
2023-02-23T10:20:59.472Z,101682.38
2023-02-23T10:23:31.516Z,101665.63
2023-02-23T10:26:02.744Z,101682.31
2023-02-23T10:28:36.190Z,101675.47
2023-02-23T10:31:09.050Z,101679.47
2023-02-23T10:33:42.959Z,101695.19
2023-02-23T10:36:19.386Z,101691.56
2023-02-23T10:38:48.023Z,101689.41
2023-02-23T10:41:16.252Z,101699.34
2023-02-23T10:43:44.272Z,101691.13
2023-02-23T10:46:21.696Z,101694.75
2023-02-23T10:48:52.833Z,101699.69
2023-02-23T10:51:30.190Z,101701.84
2023-02-23T10:54:03.041Z,101708.03
2023-02-23T10:56:45.631Z,101709.53
2023-02-23T10:59:21.068Z,101711.78
2023-02-23T11:02:01.387Z,101710.28
2023-02-23T11:04:35.055Z,101724.28
2023-02-23T11:07:16.411Z,101721.72
2023-02-23T11:09:47.730Z,101721.59
2023-02-23T11:12:23.083Z,101726.03
2023-02-23T11:14:52.795Z,101723.56
2023-02-23T11:17:34.205Z,101731.59
2023-02-23T11:20:06.881Z,101733.09
2023-02-23T11:22:37.603Z,101723.63
2023-02-23T11:25:17.232Z,101735.41
2023-02-23T11:27:51.700Z,101731.09
2023-02-23T11:30:24.685Z,101736.41
2023-02-23T11:32:54.386Z,101728.88
2023-02-23T11:35:32.957Z,101719.06
2023-02-23T11:38:01.341Z,101728.53
2023-02-23T11:40:32.388Z,101726.78
2023-02-23T11:43:10.104Z,101721.78
2023-02-23T11:45:45.915Z,101723.16
2023-02-23T11:48:22.224Z,101718.53
2023-02-23T11:50:53.277Z,101717.44
2023-02-23T11:53:28.651Z,101717.44
2023-02-23T11:56:03.742Z,101709.72
2023-02-23T11:58:38.875Z,101711.91
2023-02-23T12:01:12.335Z,101705.31
2023-02-23T12:03:48.008Z,101701.63
2023-02-23T12:06:30.642Z,101700.59
2023-02-23T12:09:05.693Z,101712.97
2023-02-23T12:11:38.892Z,101707.84
2023-02-23T12:14:13.866Z,101696.34
2023-02-23T12:16:48.275Z,101699.56
2023-02-23T12:19:26.598Z,101692.94
2023-02-23T12:22:04.630Z,101691.66
2023-02-23T12:24:42.318Z,101692.97
2023-02-23T12:27:18.060Z,101692.44
2023-02-23T12:30:03.722Z,101696.84
2023-02-23T12:32:45.652Z,101698.13
2023-02-23T12:35:20.036Z,101691.28
2023-02-23T12:37:57.989Z,101690.63
2023-02-23T12:40:29.592Z,101675.78
2023-02-23T12:43:06.713Z,101682.97
2023-02-23T12:45:42.186Z,101675.66
2023-02-23T12:48:21.212Z,101685.28
2023-02-23T12:50:54.356Z,101674.56
2023-02-23T12:53:30.033Z,101672.00
2023-02-23T12:56:26.398Z,101678.66
2023-02-23T12:59:06.865Z,101680.81
2023-02-23T13:01:38.580Z,101682.75
2023-02-23T13:04:23.805Z,101683.69
2023-02-23T13:07:00.727Z,101673.22
2023-02-23T13:09:46.855Z,101679.97
2023-02-23T13:12:24.667Z,101668.28
2023-02-23T13:14:59.729Z,101664.09
2023-02-23T13:17:38.425Z,101661.94
2023-02-23T13:20:17.520Z,101656.78
2023-02-23T13:22:51.943Z,101648.66
2023-02-23T13:25:36.096Z,101648.41
2023-02-23T13:28:05.349Z,101652.25
2023-02-23T13:30:33.838Z,101642.78
2023-02-23T13:33:12.639Z,101650.63
2023-02-23T13:35:51.175Z,101655.75
2023-02-23T13:38:26.201Z,101658.19
2023-02-23T13:41:05.275Z,101652.56
2023-02-23T13:43:40.149Z,101636.81
2023-02-23T13:46:31.680Z,101642.59
2023-02-23T13:49:04.580Z,101647.69
2023-02-23T13:51:38.879Z,101649.06
2023-02-23T13:54:23.218Z,101647.75
2023-02-23T13:56:56.831Z,101636.69
2023-02-23T13:59:32.437Z,101642.03
2023-02-23T14:02:03.961Z,101638.56
2023-02-23T14:04:38.368Z,101637.78
2023-02-23T14:07:22.748Z,101641.69
2023-02-23T14:09:56.014Z,101638.56
2023-02-23T14:12:33.659Z,101639.56
2023-02-23T14:15:30.898Z,101642.97
2023-02-23T14:18:00.126Z,101649.81
2023-02-23T14:20:45.673Z,101644.00
2023-02-23T14:23:18.577Z,101635.19
2023-02-23T14:25:57.332Z,101644.09
2023-02-23T14:28:35.058Z,101650.81
2023-02-23T14:31:09.884Z,101640.34
2023-02-23T14:33:52.371Z,101645.84
2023-02-23T14:36:45.797Z,101651.72
2023-02-23T14:39:23.719Z,101653.44
2023-02-23T14:41:55.345Z,101655.63
2023-02-23T14:44:30.922Z,101660.34
2023-02-23T14:47:04.494Z,101669.16
2023-02-23T14:49:37.049Z,101660.34
2023-02-23T14:52:11.065Z,101657.84
2023-02-23T14:54:40.860Z,101668.63
2023-02-23T14:57:19.044Z,101667.50
2023-02-23T14:59:55.940Z,101669.09
2023-02-23T15:02:26.543Z,101671.31
2023-02-23T15:04:55.197Z,101674.50
2023-02-23T15:07:32.377Z,101671.66
2023-02-23T15:10:02.518Z,101676.63
2023-02-23T15:12:36.339Z,101662.00
2023-02-23T15:15:14.359Z,101668.72
2023-02-23T15:17:48.057Z,101670.13
2023-02-23T15:20:18.974Z,101666.19
2023-02-23T15:22:50.034Z,101664.94
2023-02-23T15:25:21.065Z,101659.16
2023-02-23T15:27:51.768Z,101672.53
2023-02-23T15:30:27.733Z,101670.22
2023-02-23T15:33:04.134Z,101664.47
2023-02-23T15:35:38.039Z,101654.91
2023-02-23T15:38:17.990Z,101651.00
2023-02-23T15:40:56.919Z,101658.34
2023-02-23T15:43:25.389Z,101666.81
2023-02-23T15:45:56.207Z,101659.63
2023-02-23T15:48:27.686Z,101653.81
2023-02-23T15:50:57.864Z,101646.44
2023-02-23T15:53:30.886Z,101654.66
2023-02-23T15:56:05.405Z,101650.91
2023-02-23T15:58:44.562Z,101654.59
2023-02-23T16:01:24.946Z,101649.47
2023-02-23T16:04:01.310Z,101651.44
2023-02-23T16:06:34.317Z,101650.78
2023-02-23T16:09:05.938Z,101648.56
2023-02-23T16:11:36.553Z,101652.69
2023-02-23T16:14:07.040Z,101647.19
2023-02-23T16:16:37.169Z,101647.66
2023-02-23T16:19:05.960Z,101658.38
2023-02-23T16:21:34.848Z,101653.41
2023-02-23T16:24:10.418Z,101648.75
2023-02-23T16:26:47.350Z,101655.31
2023-02-23T16:29:19.537Z,101645.53
2023-02-23T16:31:51.716Z,101652.63
2023-02-23T16:34:22.736Z,101655.28
2023-02-23T16:36:53.824Z,101655.09
2023-02-23T16:39:25.404Z,101651.00
2023-02-23T16:41:53.453Z,101657.41
2023-02-23T16:44:26.293Z,101651.19
2023-02-23T16:47:12.399Z,101647.56
2023-02-23T16:49:40.568Z,101642.44
2023-02-23T16:52:19.125Z,101656.59
2023-02-23T16:54:52.625Z,101653.31
2023-02-23T16:57:25.652Z,101654.78
2023-02-23T16:59:55.842Z,101655.50
2023-02-23T17:02:25.441Z,101659.06
2023-02-23T17:04:59.093Z,101663.56
2023-02-23T17:07:27.608Z,101664.16
2023-02-23T17:09:56.129Z,101657.44
2023-02-23T17:12:24.447Z,101649.16
2023-02-23T17:14:52.522Z,101654.06
2023-02-23T17:17:21.822Z,101649.44
2023-02-23T17:19:51.495Z,101652.59
2023-02-23T17:22:21.011Z,101655.66
2023-02-23T17:24:49.145Z,101663.44
2023-02-23T17:27:17.173Z,101658.91
2023-02-23T17:29:45.271Z,101651.31
2023-02-23T17:32:13.611Z,101645.16
2023-02-23T17:34:41.925Z,101646.41
2023-02-23T17:37:11.789Z,101658.00
2023-02-23T17:39:41.048Z,101661.38
2023-02-23T17:42:09.773Z,101661.69
2023-02-23T17:44:39.418Z,101651.03
2023-02-23T17:47:07.425Z,101661.66
2023-02-23T17:49:35.597Z,101666.19
2023-02-23T17:52:04.265Z,101673.44
2023-02-23T17:54:33.920Z,101680.72
2023-02-23T17:57:02.130Z,101687.72
2023-02-23T17:59:30.294Z,101697.34
2023-02-23T18:02:00.238Z,101702.28
2023-02-23T18:04:29.001Z,101703.81
2023-02-23T18:06:57.816Z,101704.91
2023-02-23T18:09:26.401Z,101706.97
2023-02-23T18:11:57.944Z,101706.13
2023-02-23T18:14:26.271Z,101708.78
2023-02-23T18:16:54.431Z,101718.59
2023-02-23T18:19:22.914Z,101717.53
2023-02-23T18:21:51.099Z,101715.63
2023-02-23T18:24:19.325Z,101724.28
2023-02-23T18:26:47.484Z,101720.63
2023-02-23T18:29:18.857Z,101717.66
2023-02-23T18:31:48.203Z,101712.13
2023-02-23T18:34:16.405Z,101706.38
2023-02-23T18:36:44.872Z,101712.22
2023-02-23T18:39:13.677Z,101716.22
2023-02-23T18:41:45.497Z,101709.50
2023-02-23T18:44:17.052Z,101717.16
2023-02-23T18:46:47.432Z,101724.56
2023-02-23T18:49:16.658Z,101723.97
2023-02-23T18:51:45.068Z,101727.84
2023-02-23T18:54:16.911Z,101721.13
2023-02-23T18:56:45.494Z,101719.75
2023-02-23T19:05:24.862Z,101715.19
2023-02-23T19:07:54.997Z,101715.34
2023-02-23T19:10:23.939Z,101720.94
2023-02-23T19:13:06.884Z,101718.59
2023-02-23T19:15:39.152Z,101719.09
2023-02-23T19:18:08.442Z,101716.78
2023-02-23T19:20:36.860Z,101724.06
2023-02-23T19:23:06.191Z,101725.25
2023-02-23T19:25:34.428Z,101718.47
2023-02-23T19:31:09.489Z,101722.47
2023-02-23T19:33:40.051Z,101720.84
2023-02-23T19:36:11.098Z,101710.34
2023-02-23T19:38:39.769Z,101713.00
2023-02-23T19:41:08.597Z,101720.22
2023-02-23T19:43:36.901Z,101718.75
2023-02-23T19:46:08.681Z,101727.66
2023-02-23T19:48:38.194Z,101721.72
2023-02-23T19:51:10.286Z,101722.91
2023-02-23T19:53:42.003Z,101726.59
2023-02-23T19:56:15.230Z,101727.69
2023-02-23T19:58:47.056Z,101726.97
2023-02-23T20:01:37.791Z,101732.72
2023-02-23T20:04:08.388Z,101736.38
2023-02-23T20:06:44.939Z,101745.28
2023-02-23T20:09:13.230Z,101741.06
2023-02-23T20:11:42.875Z,101751.78
2023-02-23T20:14:13.450Z,101746.69
2023-02-23T20:16:43.030Z,101745.13
2023-02-23T20:19:13.294Z,101746.31
2023-02-23T20:21:42.244Z,101743.78
2023-02-23T20:24:12.891Z,101747.53
2023-02-23T20:26:40.924Z,101745.81
2023-02-23T20:29:13.629Z,101747.84
2023-02-23T20:31:50.815Z,101744.53
2023-02-23T20:34:22.818Z,101745.72
2023-02-23T20:36:52.228Z,101745.00
2023-02-23T20:39:20.917Z,101745.38
2023-02-23T20:41:53.650Z,101745.59
2023-02-23T20:44:23.862Z,101742.44
2023-02-23T20:46:53.453Z,101736.50
2023-02-23T20:49:22.951Z,101734.81
2023-02-23T20:51:51.151Z,101729.66
2023-02-23T20:54:21.955Z,101738.63
2023-02-23T20:56:58.927Z,101737.00
2023-02-23T20:59:31.086Z,101747.66
2023-02-23T21:02:14.181Z,101739.84
2023-02-23T21:05:00.765Z,101741.69
2023-02-23T21:07:33.241Z,101744.44
2023-02-23T21:10:02.376Z,101747.19
2023-02-23T21:12:37.108Z,101749.84
2023-02-23T21:15:14.737Z,101748.91
2023-02-23T21:17:48.749Z,101743.59
2023-02-23T21:20:22.409Z,101747.19
2023-02-23T21:22:52.860Z,101743.72
2023-02-23T21:25:24.790Z,101743.06
2023-02-23T21:27:59.153Z,101749.44
2023-02-23T21:30:30.257Z,101742.72
2023-02-23T21:33:04.138Z,101735.25
2023-02-23T21:35:34.492Z,101735.38
2023-02-23T21:38:06.349Z,101733.97
2023-02-23T21:40:42.330Z,101734.22
2023-02-23T21:43:16.782Z,101744.97
2023-02-23T21:45:47.361Z,101737.50
2023-02-23T21:48:16.961Z,101735.91
2023-02-23T21:50:49.157Z,101731.75
2023-02-23T21:53:20.802Z,101736.44
2023-02-23T21:55:53.590Z,101734.06
2023-02-23T21:58:31.550Z,101729.09
2023-02-23T22:01:00.864Z,101726.66
2023-02-23T22:03:39.455Z,101733.94
2023-02-23T22:06:13.080Z,101721.88
2023-02-23T22:08:55.033Z,101734.41
2023-02-23T22:11:37.422Z,101736.31
2023-02-23T22:14:12.932Z,101748.09
2023-02-23T22:16:48.643Z,101737.78
2023-02-23T22:19:24.468Z,101732.66
2023-02-23T22:22:00.801Z,101731.06
2023-02-23T22:24:29.651Z,101728.59
2023-02-23T22:27:00.485Z,101733.22
2023-02-23T22:29:28.650Z,101734.28
2023-02-23T22:31:57.482Z,101745.13
2023-02-23T22:34:34.588Z,101735.56
2023-02-23T22:37:03.322Z,101738.22
2023-02-23T22:39:36.274Z,101742.59
2023-02-23T22:45:13.148Z,101728.84
2023-02-23T22:47:46.296Z,101726.28
2023-02-23T22:50:29.285Z,101724.56
2023-02-23T22:53:03.002Z,101728.94
2023-02-23T22:55:35.774Z,101723.75
2023-02-23T22:58:08.576Z,101726.41
2023-02-23T23:00:37.403Z,101722.19
2023-02-23T23:03:06.538Z,101711.69
2023-02-23T23:05:37.563Z,101700.28
2023-02-23T23:08:06.805Z,101710.09
2023-02-23T23:10:36.702Z,101700.53
2023-02-23T23:13:08.545Z,101700.63
2023-02-23T23:15:39.661Z,101697.09
2023-02-23T23:18:16.248Z,101698.81
2023-02-23T23:20:45.865Z,101686.53
2023-02-23T23:23:15.551Z,101684.81
2023-02-23T23:25:47.709Z,101685.78
2023-02-23T23:28:16.976Z,101685.69
2023-02-23T23:30:46.327Z,101669.97
2023-02-23T23:33:15.135Z,101663.81
2023-02-23T23:35:43.646Z,101657.66
2023-02-23T23:38:14.591Z,101657.66
2023-02-23T23:40:47.425Z,101658.56
2023-02-23T23:43:15.746Z,101657.66
2023-02-23T23:45:54.278Z,101667.31
2023-02-23T23:48:22.358Z,101647.94
2023-02-23T23:50:51.391Z,101647.94
2023-02-23T23:53:22.291Z,101651.44
2023-02-23T23:55:50.639Z,101653.16
2023-02-23T23:58:19.881Z,101651.56
